createdAt,value
2018-10-19T00:01:47.577Z,24.30
2018-10-19T00:04:19.391Z,22.23
2018-10-19T00:06:51.070Z,22.50
2018-10-19T00:09:22.893Z,21.50
2018-10-19T00:11:54.677Z,23.50
2018-10-19T00:14:26.438Z,19.77
2018-10-19T00:16:58.197Z,21.53
2018-10-19T00:19:30.047Z,24.87
2018-10-19T00:22:01.717Z,24.07
2018-10-19T00:24:33.572Z,26.17
2018-10-19T00:27:05.443Z,22.27
2018-10-19T00:29:37.489Z,22.27
2018-10-19T00:32:09.351Z,22.87
2018-10-19T00:34:41.121Z,23.97
2018-10-19T00:37:12.989Z,24.33
2018-10-19T00:39:44.817Z,21.13
2018-10-19T00:42:16.710Z,22.77
2018-10-19T00:44:48.352Z,23.20
2018-10-19T00:47:20.121Z,22.37
2018-10-19T00:49:51.869Z,23.37
2018-10-19T00:52:23.513Z,22.43
2018-10-19T00:54:55.266Z,23.10
2018-10-19T00:57:27.031Z,22.97
2018-10-19T00:59:58.716Z,20.20
2018-10-19T01:02:30.546Z,22.13
2018-10-19T01:05:02.420Z,21.07
2018-10-19T01:07:34.399Z,21.67
2018-10-19T01:10:06.471Z,22.40
2018-10-19T01:12:38.206Z,20.10
2018-10-19T01:15:09.970Z,20.97
2018-10-19T01:17:41.721Z,17.67
2018-10-19T01:20:13.474Z,18.53
2018-10-19T01:22:45.410Z,17.47
2018-10-19T01:25:17.218Z,15.17
2018-10-19T01:27:49.047Z,16.20
2018-10-19T01:30:20.944Z,21.90
2018-10-19T01:32:52.711Z,21.73
2018-10-19T01:35:24.538Z,17.10
2018-10-19T01:37:56.425Z,19.53
2018-10-19T01:40:28.172Z,18.33
2018-10-19T01:42:59.933Z,19.60
2018-10-19T01:45:31.883Z,19.37
2018-10-19T01:48:03.852Z,16.33
2018-10-19T01:50:35.709Z,20.10
2018-10-19T01:53:07.607Z,16.17
2018-10-19T01:55:39.428Z,15.17
2018-10-19T01:58:11.187Z,19.10
2018-10-19T02:00:42.998Z,16.80
2018-10-19T02:03:14.936Z,15.73
2018-10-19T02:05:46.798Z,19.27
2018-10-19T02:08:18.601Z,19.23
2018-10-19T02:10:50.400Z,15.57
2018-10-19T02:13:22.184Z,14.23
2018-10-19T02:15:54.145Z,13.40
2018-10-19T02:18:25.993Z,13.07
2018-10-19T02:20:57.789Z,17.37
2018-10-19T02:23:29.614Z,15.60
2018-10-19T02:26:01.272Z,16.77
2018-10-19T02:28:32.847Z,15.73
2018-10-19T02:31:04.716Z,13.70
2018-10-19T02:33:36.642Z,15.17
2018-10-19T02:36:08.547Z,10.97
2018-10-19T02:38:40.387Z,14.30
2018-10-19T02:41:12.198Z,12.70
2018-10-19T02:43:43.993Z,15.40
2018-10-19T02:46:15.946Z,11.37
2018-10-19T02:48:47.700Z,11.27
2018-10-19T02:51:19.445Z,11.07
2018-10-19T02:53:51.244Z,11.67
2018-10-19T02:56:22.998Z,10.40
2018-10-19T02:58:54.792Z,10.23
2018-10-19T03:01:26.615Z,9.60
2018-10-19T03:03:58.360Z,11.03
2018-10-19T03:06:30.137Z,10.33
2018-10-19T03:09:01.945Z,12.07
2018-10-19T03:11:33.710Z,14.23
2018-10-19T03:14:05.562Z,13.07
2018-10-19T03:16:37.379Z,15.33
2018-10-19T03:19:09.344Z,15.90
2018-10-19T03:21:41.114Z,14.00
2018-10-19T03:24:12.927Z,14.00
2018-10-19T03:26:44.687Z,12.37
2018-10-19T03:29:16.412Z,14.60
2018-10-19T03:31:48.340Z,13.13
2018-10-19T03:34:20.079Z,11.63
2018-10-19T03:36:51.746Z,11.67
2018-10-19T03:39:23.404Z,13.23
2018-10-19T03:41:55.254Z,13.27
2018-10-19T03:44:27.016Z,13.17
2018-10-19T03:46:58.766Z,15.17
2018-10-19T03:49:30.627Z,15.70
2018-10-19T03:52:02.493Z,11.10
2018-10-19T03:54:34.158Z,12.47
2018-10-19T03:57:06.649Z,12.27
2018-10-19T03:59:38.394Z,13.33
2018-10-19T04:02:10.132Z,14.00
2018-10-19T04:04:41.996Z,14.20
2018-10-19T04:07:13.889Z,14.70
2018-10-19T04:09:45.531Z,13.50
2018-10-19T04:12:17.305Z,14.63
2018-10-19T04:14:48.933Z,12.97
2018-10-19T04:17:20.614Z,14.27
2018-10-19T04:19:52.345Z,12.73
2018-10-19T04:22:24.013Z,12.17
2018-10-19T04:24:55.757Z,13.97
2018-10-19T04:27:27.567Z,11.93
2018-10-19T04:29:59.400Z,12.53
2018-10-19T04:32:31.142Z,10.40
2018-10-19T04:35:03.100Z,12.30
2018-10-19T04:37:34.785Z,9.60
2018-10-19T04:40:10.078Z,11.07
2018-10-19T04:42:41.775Z,10.30
2018-10-19T04:45:13.474Z,10.07
2018-10-19T04:47:45.375Z,12.07
2018-10-19T04:50:17.266Z,9.93
2018-10-19T04:52:49.214Z,9.70
2018-10-19T04:55:22.469Z,10.57
2018-10-19T04:57:54.271Z,13.40
2018-10-19T05:00:26.028Z,12.67
2018-10-19T05:02:57.975Z,11.80
2018-10-19T05:05:30.052Z,15.87
2018-10-19T05:08:01.814Z,15.93
2018-10-19T05:10:33.699Z,14.90
2018-10-19T05:13:05.417Z,13.13
2018-10-19T05:15:37.191Z,11.27
2018-10-19T05:18:08.974Z,12.50
2018-10-19T05:20:40.620Z,11.20
2018-10-19T05:23:12.405Z,13.27
2018-10-19T05:25:44.018Z,11.50
2018-10-19T05:28:15.696Z,11.23
2018-10-19T05:30:47.566Z,10.53
2018-10-19T05:33:19.213Z,9.67
2018-10-19T05:35:50.980Z,11.27
2018-10-19T05:38:22.700Z,9.80
2018-10-19T05:40:54.446Z,8.33
2018-10-19T05:43:26.276Z,9.80
2018-10-19T05:45:57.988Z,10.50
2018-10-19T05:48:29.777Z,10.53
2018-10-19T05:51:01.631Z,8.77
2018-10-19T05:53:33.462Z,9.17
2018-10-19T05:56:05.488Z,8.77
2018-10-19T05:58:37.530Z,7.33
2018-10-19T06:01:09.379Z,9.40
2018-10-19T06:03:41.233Z,8.70
2018-10-19T06:06:13.084Z,9.40
2018-10-19T06:08:44.758Z,8.13
2018-10-19T06:11:16.479Z,9.07
2018-10-19T06:13:48.366Z,8.50
2018-10-19T06:16:20.132Z,8.03
2018-10-19T06:18:51.792Z,6.70
2018-10-19T06:21:23.664Z,8.23
2018-10-19T06:23:55.289Z,7.83
2018-10-19T06:26:27.234Z,7.07
2018-10-19T06:28:59.019Z,9.20
2018-10-19T06:31:30.876Z,6.90
2018-10-19T06:34:02.663Z,7.40
2018-10-19T06:39:18.858Z,9.77
2018-10-19T06:41:50.965Z,6.63
2018-10-19T06:44:22.801Z,8.47
2018-10-19T06:46:54.467Z,7.40
2018-10-19T06:49:26.291Z,7.47
2018-10-19T06:51:58.188Z,9.97
2018-10-19T06:54:29.904Z,9.87
2018-10-19T06:57:01.580Z,8.60
2018-10-19T06:59:33.514Z,7.00
2018-10-19T07:02:05.300Z,6.13
2018-10-19T07:04:37.086Z,4.67
2018-10-19T07:07:08.946Z,6.53
2018-10-19T07:09:40.791Z,7.33
2018-10-19T07:12:12.613Z,4.63
2018-10-19T07:14:44.301Z,4.23
2018-10-19T07:17:16.108Z,3.80
2018-10-19T07:19:48.046Z,3.07
2018-10-19T07:22:19.678Z,5.00
2018-10-19T07:24:51.510Z,3.60
2018-10-19T07:27:23.289Z,3.57
2018-10-19T07:29:55.006Z,4.90
2018-10-19T07:32:26.829Z,4.23
2018-10-19T07:34:58.852Z,5.60
2018-10-19T07:37:30.669Z,3.57
2018-10-19T07:40:02.306Z,2.57
2018-10-19T07:42:34.212Z,3.03
2018-10-19T07:45:06.563Z,2.97
2018-10-19T07:47:38.440Z,3.70
2018-10-19T07:50:10.875Z,3.10
2018-10-19T07:52:42.653Z,3.30
2018-10-19T07:55:14.396Z,4.70
2018-10-19T07:57:46.169Z,3.70
2018-10-19T08:00:17.844Z,4.00
2018-10-19T08:02:49.674Z,4.10
2018-10-19T08:05:21.519Z,7.70
2018-10-19T08:07:53.335Z,5.43
2018-10-19T08:10:25.076Z,6.67
2018-10-19T08:12:56.823Z,10.50
2018-10-19T08:15:28.562Z,8.30
2018-10-19T08:18:00.370Z,11.07
2018-10-19T08:20:32.104Z,12.60
2018-10-19T08:23:03.912Z,11.07
2018-10-19T08:25:35.615Z,12.73
2018-10-19T08:28:07.578Z,11.77
2018-10-19T08:30:39.448Z,13.87
2018-10-19T08:33:11.228Z,10.30
2018-10-19T08:35:43.061Z,12.00
2018-10-19T08:38:14.938Z,12.83
2018-10-19T08:40:46.813Z,9.87
2018-10-19T08:43:18.717Z,12.83
2018-10-19T08:45:50.595Z,13.87
2018-10-19T08:48:22.360Z,17.67
2018-10-19T08:50:54.036Z,13.67
2018-10-19T08:53:25.967Z,13.73
2018-10-19T08:55:57.764Z,13.63
2018-10-19T08:58:29.607Z,18.07
2018-10-19T09:01:01.471Z,10.30
2018-10-19T09:03:33.485Z,9.40
2018-10-19T09:06:05.475Z,11.77
2018-10-19T09:08:37.259Z,15.40
2018-10-19T09:11:09.061Z,14.37
2018-10-19T09:13:41.067Z,12.03
2018-10-19T09:16:12.738Z,14.60
2018-10-19T09:18:44.502Z,15.47
2018-10-19T09:21:16.249Z,14.93
2018-10-19T09:23:47.902Z,17.60
2018-10-19T09:26:19.771Z,19.70
2018-10-19T09:28:51.540Z,15.83
2018-10-19T09:31:23.184Z,17.60
2018-10-19T09:33:54.851Z,13.43
2018-10-19T09:36:26.801Z,13.70
2018-10-19T09:38:58.623Z,19.57
2018-10-19T09:41:30.325Z,16.63
2018-10-19T09:44:01.936Z,21.83
2018-10-19T09:46:33.760Z,16.43
2018-10-19T09:49:05.622Z,12.37
2018-10-19T09:51:38.031Z,20.23
2018-10-19T09:54:10.467Z,14.10
2018-10-19T09:56:42.374Z,19.83
2018-10-19T09:59:14.313Z,23.17
2018-10-19T10:01:46.299Z,15.60
2018-10-19T10:04:18.096Z,21.03
2018-10-19T10:06:49.778Z,17.40
2018-10-19T10:09:21.636Z,17.23
2018-10-19T10:11:53.494Z,13.60
2018-10-19T10:14:25.250Z,15.80
2018-10-19T10:16:57.105Z,19.67
2018-10-19T10:19:29.055Z,20.70
2018-10-19T10:22:00.755Z,15.03
2018-10-19T10:24:32.495Z,16.90
2018-10-19T10:27:04.357Z,15.03
2018-10-19T10:29:35.997Z,18.83
2018-10-19T10:32:07.669Z,17.97
2018-10-19T10:34:39.420Z,14.90
2018-10-19T10:37:11.338Z,13.47
2018-10-19T10:39:43.148Z,13.07
2018-10-19T10:42:15.108Z,13.07
2018-10-19T10:44:46.843Z,10.77
2018-10-19T10:47:18.621Z,9.73
2018-10-19T10:49:50.467Z,12.47
2018-10-19T10:52:22.332Z,15.23
2018-10-19T10:54:54.016Z,21.77
2018-10-19T10:57:26.047Z,12.07
2018-10-19T10:59:57.934Z,18.87
2018-10-19T11:02:29.683Z,17.87
2018-10-19T11:05:01.438Z,14.30
2018-10-19T11:07:33.485Z,14.03
2018-10-19T11:10:05.352Z,14.00
2018-10-19T11:12:37.152Z,10.77
2018-10-19T11:15:09.818Z,9.77
2018-10-19T11:17:41.466Z,10.63
2018-10-19T11:20:13.310Z,9.50
2018-10-19T11:22:45.097Z,10.43
2018-10-19T11:25:16.990Z,9.80
2018-10-19T11:27:48.931Z,11.13
2018-10-19T11:30:20.790Z,11.50
2018-10-19T11:32:52.543Z,9.87
2018-10-19T11:35:24.279Z,19.20
2018-10-19T11:37:55.943Z,11.20
2018-10-19T11:40:35.094Z,20.40
2018-10-19T11:43:07.238Z,10.37
2018-10-19T11:45:39.759Z,12.83
2018-10-19T11:48:11.593Z,9.93
2018-10-19T11:50:43.458Z,15.87
2018-10-19T11:53:15.217Z,12.00
2018-10-19T11:55:46.960Z,11.20
2018-10-19T11:58:18.829Z,9.57
2018-10-19T12:00:50.669Z,11.07
2018-10-19T12:03:22.634Z,8.47
2018-10-19T12:05:54.294Z,9.87
2018-10-19T12:08:25.967Z,10.97
2018-10-19T12:10:57.745Z,9.90
2018-10-19T12:13:29.597Z,9.90
2018-10-19T12:16:01.255Z,12.57
2018-10-19T12:18:33.110Z,8.23
2018-10-19T12:21:04.917Z,10.03
2018-10-19T12:23:36.828Z,9.73
2018-10-19T12:26:08.855Z,9.23
2018-10-19T12:28:40.734Z,12.13
2018-10-19T12:31:12.519Z,10.13
2018-10-19T12:33:44.155Z,8.20
2018-10-19T12:36:15.967Z,9.27
2018-10-19T12:38:47.670Z,7.93
2018-10-19T12:41:19.407Z,8.83
2018-10-19T12:43:51.295Z,9.50
2018-10-19T12:46:41.204Z,9.90
2018-10-19T12:49:14.739Z,14.67
2018-10-19T12:51:46.635Z,10.67
2018-10-19T12:54:18.869Z,8.13
2018-10-19T12:56:50.721Z,8.53
2018-10-19T12:59:22.436Z,8.43
2018-10-19T13:01:54.181Z,7.40
2018-10-19T13:04:26.041Z,8.37
2018-10-19T13:06:57.866Z,7.27
2018-10-19T13:09:29.693Z,7.57
2018-10-19T13:12:01.518Z,7.90
2018-10-19T13:14:33.305Z,8.97
2018-10-19T13:17:05.264Z,10.50
2018-10-19T13:19:37.113Z,8.90
2018-10-19T13:22:09.071Z,11.87
2018-10-19T13:24:40.847Z,9.97
2018-10-19T13:27:12.723Z,9.00
2018-10-19T13:29:44.480Z,9.90
2018-10-19T13:32:16.236Z,8.73
2018-10-19T13:34:47.877Z,7.73
2018-10-19T13:37:19.762Z,8.17
2018-10-19T13:39:51.397Z,10.10
2018-10-19T13:42:23.135Z,8.83
2018-10-19T13:44:54.941Z,8.63
2018-10-19T13:47:26.706Z,8.97
2018-10-19T13:49:58.546Z,9.13
2018-10-19T13:52:30.375Z,8.67
2018-10-19T13:55:02.039Z,9.13
2018-10-19T13:57:34.013Z,13.27
2018-10-19T14:00:05.915Z,10.57
2018-10-19T14:02:37.852Z,11.00
2018-10-19T14:05:10.078Z,18.53
2018-10-19T14:07:41.856Z,14.97
2018-10-19T14:10:13.645Z,12.93
2018-10-19T14:12:45.299Z,10.63
2018-10-19T14:15:17.131Z,7.70
2018-10-19T14:17:48.811Z,10.93
2018-10-19T14:20:20.596Z,15.03
2018-10-19T14:22:52.703Z,17.80
2018-10-19T14:25:24.411Z,12.30
2018-10-19T14:27:56.160Z,21.50
2018-10-19T14:30:27.990Z,17.43
2018-10-19T14:32:59.698Z,19.93
2018-10-19T14:35:31.543Z,21.27
2018-10-19T14:38:03.480Z,18.13
2018-10-19T14:40:35.565Z,20.93
2018-10-19T14:43:07.715Z,14.03
2018-10-19T14:45:39.376Z,14.93
2018-10-19T14:48:11.279Z,11.43
2018-10-19T14:50:43.093Z,11.40
2018-10-19T14:53:15.041Z,7.53
2018-10-19T14:55:46.829Z,7.57
2018-10-19T14:58:18.494Z,12.87
2018-10-19T15:00:50.326Z,7.00
2018-10-19T15:03:22.191Z,8.83
2018-10-19T15:05:53.981Z,9.30
2018-10-19T15:08:25.738Z,10.57
2018-10-19T15:10:57.738Z,8.67
2018-10-19T15:13:29.344Z,8.00
2018-10-19T15:16:01.198Z,8.97
2018-10-19T15:18:32.918Z,9.33
2018-10-19T15:21:04.678Z,9.80
2018-10-19T15:23:36.575Z,17.60
2018-10-19T15:26:08.253Z,12.97
2018-10-19T15:28:40.010Z,14.80
2018-10-19T15:31:11.879Z,14.80
2018-10-19T15:33:43.536Z,14.20
2018-10-19T15:36:15.263Z,12.33
2018-10-19T15:38:47.057Z,12.40
2018-10-19T15:41:19.025Z,12.87
2018-10-19T15:43:50.877Z,14.60
2018-10-19T15:46:22.572Z,14.10
2018-10-19T15:48:54.402Z,15.73
2018-10-19T15:51:26.138Z,15.53
2018-10-19T15:53:57.809Z,17.83
2018-10-19T15:56:29.560Z,15.50
2018-10-19T15:59:01.429Z,15.97
2018-10-19T16:01:33.180Z,13.57
2018-10-19T16:04:05.102Z,14.07
2018-10-19T16:06:36.877Z,14.23
2018-10-19T16:09:12.467Z,16.07
2018-10-19T16:11:44.904Z,16.13
2018-10-19T16:14:16.669Z,17.53
2018-10-19T16:16:48.455Z,16.80
2018-10-19T16:19:20.197Z,16.70
2018-10-19T16:21:51.950Z,15.77
2018-10-19T16:24:23.731Z,17.07
2018-10-19T16:26:55.503Z,16.70
2018-10-19T16:29:27.415Z,16.77
2018-10-19T16:31:59.282Z,17.60
2018-10-19T16:34:30.944Z,17.80
2018-10-19T16:37:02.633Z,14.00
2018-10-19T16:39:34.464Z,16.80
2018-10-19T16:42:06.391Z,17.63
2018-10-19T16:44:38.104Z,18.50
2018-10-19T16:47:10.047Z,16.87
2018-10-19T16:49:41.674Z,17.80
2018-10-19T16:52:13.543Z,18.50
2018-10-19T16:54:45.349Z,19.57
2018-10-19T16:57:17.220Z,22.43
2018-10-19T16:59:48.965Z,20.23
2018-10-19T17:02:20.831Z,22.17
2018-10-19T17:04:52.816Z,23.67
2018-10-19T17:07:24.340Z,20.07
2018-10-19T17:09:56.110Z,22.47
2018-10-19T17:12:27.872Z,24.60
2018-10-19T17:14:59.768Z,22.57
2018-10-19T17:17:31.590Z,23.23
2018-10-19T17:20:03.430Z,18.63
2018-10-19T17:22:35.202Z,18.60
2018-10-19T17:25:09.162Z,15.33
2018-10-19T17:27:41.220Z,16.27
2018-10-19T17:30:14.517Z,17.30
2018-10-19T17:32:46.318Z,20.33
2018-10-19T17:35:18.096Z,21.13
2018-10-19T17:37:49.834Z,16.37
2018-10-19T17:40:21.499Z,18.73
2018-10-19T17:42:53.234Z,17.70
2018-10-19T17:45:25.111Z,20.30
2018-10-19T17:47:56.919Z,19.07
2018-10-19T17:50:28.720Z,25.17
2018-10-19T17:53:00.669Z,19.47
2018-10-19T17:55:32.364Z,25.10
2018-10-19T17:58:04.135Z,21.93
2018-10-19T18:00:35.976Z,21.60
2018-10-19T18:03:07.857Z,22.53
2018-10-19T18:05:39.715Z,21.23
2018-10-19T18:08:11.479Z,18.53
2018-10-19T18:10:43.236Z,17.77
2018-10-19T18:13:14.901Z,20.87
2018-10-19T18:15:46.698Z,20.77
2018-10-19T18:18:18.515Z,23.00
2018-10-19T18:20:50.280Z,18.80
2018-10-19T18:23:22.428Z,19.93
2018-10-19T18:25:54.029Z,21.23
2018-10-19T18:28:25.961Z,23.30
2018-10-19T18:30:57.889Z,20.80
2018-10-19T18:33:29.683Z,20.03
2018-10-19T18:36:01.535Z,18.67
2018-10-19T18:38:33.720Z,20.40
2018-10-19T18:41:05.783Z,22.93
2018-10-19T18:43:37.640Z,26.83
2018-10-19T18:46:09.489Z,22.80
2018-10-19T18:48:41.347Z,20.80
2018-10-19T18:51:13.016Z,22.23
2018-10-19T18:53:44.761Z,20.80
2018-10-19T18:56:16.562Z,19.23
2018-10-19T18:58:48.270Z,21.87
2018-10-19T19:01:20.034Z,19.63
2018-10-19T19:03:52.001Z,20.43
2018-10-19T19:06:23.787Z,24.10
2018-10-19T19:08:55.532Z,20.33
2018-10-19T19:11:27.293Z,20.73
2018-10-19T19:13:59.170Z,19.83
2018-10-19T19:16:31.702Z,20.90
2018-10-19T19:19:03.492Z,24.07
2018-10-19T19:21:35.312Z,28.33
2018-10-19T19:24:12.270Z,23.53
2018-10-19T19:26:43.975Z,24.40
2018-10-19T19:29:15.910Z,26.47
2018-10-19T19:31:47.683Z,24.00
2018-10-19T19:34:22.350Z,25.00
2018-10-19T19:36:54.096Z,24.60
2018-10-19T19:39:25.843Z,21.60
2018-10-19T19:42:02.532Z,23.37
2018-10-19T19:44:34.295Z,26.53
2018-10-19T19:47:06.544Z,24.47
2018-10-19T19:49:40.632Z,24.63
2018-10-19T19:52:12.417Z,26.30
2018-10-19T19:54:44.176Z,23.57
2018-10-19T19:57:15.886Z,22.13
2018-10-19T19:59:47.682Z,19.33
2018-10-19T20:02:19.480Z,24.83
2018-10-19T20:04:51.438Z,23.90
2018-10-19T20:07:23.193Z,23.00
2018-10-19T20:09:55.029Z,21.50
2018-10-19T20:12:26.811Z,26.50
2018-10-19T20:14:58.676Z,22.87
2018-10-19T20:17:30.329Z,22.03
2018-10-19T20:20:02.171Z,24.83
2018-10-19T20:22:33.823Z,21.80
2018-10-19T20:25:06.442Z,24.23
2018-10-19T20:27:39.008Z,22.03
2018-10-19T20:30:13.147Z,20.80
2018-10-19T20:32:45.085Z,21.57
2018-10-19T20:35:17.040Z,20.20
2018-10-19T20:37:48.913Z,21.03
2018-10-19T20:40:20.660Z,20.43
2018-10-19T20:42:52.605Z,23.57
2018-10-19T20:45:24.397Z,21.00
2018-10-19T20:47:56.254Z,22.67
2018-10-19T20:50:27.984Z,18.97
2018-10-19T20:52:59.792Z,19.63
2018-10-19T20:55:31.554Z,20.43
2018-10-19T20:58:03.286Z,22.60
2018-10-19T21:00:35.056Z,18.67
2018-10-19T21:03:06.984Z,19.63
2018-10-19T21:05:38.773Z,23.37
2018-10-19T21:08:10.759Z,26.17
2018-10-19T21:10:42.775Z,23.90
2018-10-19T21:13:14.576Z,23.13
2018-10-19T21:15:46.420Z,24.60
2018-10-19T21:18:18.276Z,22.00
2018-10-19T21:20:50.044Z,23.00
2018-10-19T21:23:21.696Z,22.60
2018-10-19T21:25:53.561Z,23.87
2018-10-19T21:28:25.524Z,24.70
2018-10-19T21:30:57.282Z,26.97
2018-10-19T21:33:28.934Z,25.30
2018-10-19T21:36:01.102Z,25.23
2018-10-19T21:38:32.759Z,28.13
2018-10-19T21:41:04.433Z,26.20
2018-10-19T21:43:36.281Z,22.97
2018-10-19T21:46:08.142Z,22.07
2018-10-19T21:48:39.994Z,21.33
2018-10-19T21:51:11.731Z,24.63
2018-10-19T21:53:43.520Z,21.03
2018-10-19T21:56:15.326Z,21.50
2018-10-19T21:58:47.223Z,23.03
2018-10-19T22:01:19.108Z,21.40
2018-10-19T22:03:50.965Z,23.40
2018-10-19T22:06:22.731Z,21.77
2018-10-19T22:08:54.553Z,21.67
2018-10-19T22:11:26.347Z,20.00
2018-10-19T22:13:58.002Z,23.07
2018-10-19T22:16:29.935Z,25.07
2018-10-19T22:19:01.798Z,21.97
2018-10-19T22:21:33.563Z,19.63
2018-10-19T22:24:05.332Z,22.27
2018-10-19T22:26:37.104Z,21.53
2018-10-19T22:29:09.128Z,22.03
2018-10-19T22:31:40.919Z,22.00
2018-10-19T22:34:12.655Z,26.33
2018-10-19T22:36:44.328Z,24.10
2018-10-19T22:39:15.984Z,21.30
2018-10-19T22:41:47.759Z,20.77
2018-10-19T22:44:19.521Z,25.53
2018-10-19T22:46:51.384Z,24.13
2018-10-19T22:49:23.057Z,23.43
2018-10-19T22:51:54.872Z,31.20
2018-10-19T22:54:26.546Z,26.53
2018-10-19T22:56:58.392Z,23.73
2018-10-19T22:59:30.278Z,29.70
2018-10-19T23:02:01.919Z,30.17
2018-10-19T23:04:33.783Z,26.40
2018-10-19T23:07:05.921Z,22.37
2018-10-19T23:09:38.146Z,29.50
2018-10-19T23:12:09.884Z,25.40
2018-10-19T23:14:41.739Z,28.43
2018-10-19T23:17:13.592Z,26.37
2018-10-19T23:19:45.459Z,25.93
2018-10-19T23:22:17.238Z,24.03
2018-10-19T23:24:48.988Z,22.70
2018-10-19T23:27:20.729Z,22.50
2018-10-19T23:29:52.615Z,22.23
2018-10-19T23:32:24.362Z,20.30
2018-10-19T23:34:56.339Z,25.80
2018-10-19T23:37:28.310Z,26.37
2018-10-19T23:40:00.043Z,26.53
2018-10-19T23:42:31.703Z,30.00
2018-10-19T23:45:03.477Z,24.93
2018-10-19T23:47:35.217Z,24.67
2018-10-19T23:50:07.575Z,22.37
2018-10-19T23:52:39.398Z,24.27
2018-10-19T23:55:11.409Z,26.13
2018-10-19T23:57:43.064Z,23.13
